createdAt,value
2022-10-29T00:00:58.368Z,0
2022-10-29T00:01:58.745Z,0
2022-10-29T00:02:59.068Z,0
2022-10-29T00:03:58.966Z,0
2022-10-29T00:04:58.312Z,0
2022-10-29T00:05:58.591Z,0
2022-10-29T00:06:58.392Z,0
2022-10-29T00:07:59.189Z,0
2022-10-29T00:08:58.795Z,0
2022-10-29T00:09:58.794Z,0
2022-10-29T00:10:58.781Z,0
2022-10-29T00:11:58.525Z,0
2022-10-29T00:12:58.510Z,0
2022-10-29T00:13:58.258Z,0
2022-10-29T00:14:58.532Z,0
2022-10-29T00:15:58.500Z,0
2022-10-29T00:16:58.231Z,0
2022-10-29T00:17:59.348Z,0
2022-10-29T00:18:58.739Z,0
2022-10-29T00:19:59.025Z,0
2022-10-29T00:20:58.209Z,0
2022-10-29T00:21:58.768Z,0
2022-10-29T00:22:59.591Z,0
2022-10-29T00:23:58.191Z,0
2022-10-29T00:24:58.447Z,0
2022-10-29T00:25:58.442Z,0
2022-10-29T00:26:58.427Z,0
2022-10-29T00:27:58.675Z,0
2022-10-29T00:28:58.411Z,0
2022-10-29T00:29:58.236Z,0
2022-10-29T00:30:58.147Z,0
2022-10-29T00:31:58.615Z,0
2022-10-29T00:32:59.041Z,0
2022-10-29T00:33:58.381Z,0
2022-10-29T00:34:58.634Z,0
2022-10-29T00:35:58.706Z,0
2022-10-29T00:36:58.616Z,0
2022-10-29T00:37:59.475Z,0
2022-10-29T00:38:58.357Z,0
2022-10-29T00:39:58.346Z,0
2022-10-29T00:40:57.820Z,0
2022-10-29T00:41:58.072Z,0
2022-10-29T00:42:58.324Z,0
2022-10-29T00:43:58.061Z,0
2022-10-29T00:44:58.072Z,0
2022-10-29T00:45:58.559Z,0
2022-10-29T00:46:58.039Z,0
2022-10-29T00:47:59.507Z,0
2022-10-29T00:48:58.292Z,0
2022-10-29T00:49:58.525Z,0
2022-10-29T00:50:58.267Z,0
2022-10-29T00:51:58.330Z,0
2022-10-29T00:52:57.998Z,0
2022-10-29T00:53:58.524Z,0
2022-10-29T00:54:58.239Z,0
2022-10-29T00:55:58.228Z,0
2022-10-29T00:56:58.227Z,0
2022-10-29T00:57:59.316Z,0
2022-10-29T00:58:58.219Z,0
2022-10-29T00:59:57.734Z,0
2022-10-29T01:00:58.199Z,0
2022-10-29T01:01:58.639Z,0
2022-10-29T01:02:59.194Z,0
2022-10-29T01:03:57.931Z,0
2022-10-29T01:04:58.180Z,0
2022-10-29T01:05:58.193Z,0
2022-10-29T01:06:58.425Z,0
2022-10-29T01:07:58.482Z,0
2022-10-29T01:08:57.893Z,0
2022-10-29T01:09:57.911Z,0
2022-10-29T01:10:58.387Z,0
2022-10-29T01:11:58.130Z,0
2022-10-29T01:12:58.916Z,0
2022-10-29T01:13:58.372Z,0
2022-10-29T01:14:58.097Z,0
2022-10-29T01:15:57.842Z,0
2022-10-29T01:16:58.078Z,0
2022-10-29T01:17:59.512Z,0
2022-10-29T01:18:58.744Z,0
2022-10-29T01:19:58.074Z,0
2022-10-29T01:20:58.064Z,0
2022-10-29T01:21:57.798Z,0
2022-10-29T01:22:58.300Z,0
2022-10-29T01:23:58.369Z,0
2022-10-29T01:24:57.781Z,0
2022-10-29T01:25:58.306Z,0
2022-10-29T01:26:58.028Z,0
2022-10-29T01:27:59.487Z,0
2022-10-29T01:28:58.017Z,0
2022-10-29T01:29:57.997Z,0
2022-10-29T01:30:57.746Z,0
2022-10-29T01:31:57.726Z,0
2022-10-29T01:32:58.928Z,0
2022-10-29T01:34:29.795Z,0
2022-10-29T01:34:57.989Z,0
2022-10-29T01:35:57.965Z,0
2022-10-29T01:36:58.204Z,0
2022-10-29T01:37:58.199Z,0
2022-10-29T01:38:57.689Z,0
2022-10-29T01:39:58.005Z,0
2022-10-29T01:40:57.925Z,0
2022-10-29T01:41:58.211Z,0
2022-10-29T01:42:59.268Z,0
2022-10-29T01:43:57.908Z,0
2022-10-29T01:44:57.892Z,0
2022-10-29T01:45:57.887Z,0
2022-10-29T01:46:57.878Z,0
2022-10-29T01:47:59.138Z,0
2022-10-29T01:48:57.863Z,0
2022-10-29T01:49:57.858Z,0
2022-10-29T01:50:57.588Z,0
2022-10-29T01:51:57.586Z,0
2022-10-29T01:52:58.098Z,0
2022-10-29T01:53:57.569Z,0
2022-10-29T01:54:57.563Z,0
2022-10-29T01:55:58.142Z,0
2022-10-29T01:56:57.547Z,0
2022-10-29T01:57:59.230Z,0
2022-10-29T01:58:57.793Z,0
2022-10-29T02:00:02.924Z,0
2022-10-29T02:00:57.843Z,0
2022-10-29T02:01:58.065Z,0
2022-10-29T02:02:58.431Z,0
2022-10-29T02:03:57.750Z,0
2022-10-29T02:04:58.000Z,0
2022-10-29T02:05:57.740Z,0
2022-10-29T02:06:57.727Z,0
2022-10-29T02:07:57.988Z,0
2022-10-29T02:08:57.971Z,0
2022-10-29T02:09:57.716Z,0
2022-10-29T02:10:57.957Z,0
2022-10-29T02:11:57.765Z,0
2022-10-29T02:12:58.616Z,0
2022-10-29T02:13:57.953Z,0
2022-10-29T02:14:57.668Z,0
2022-10-29T02:15:57.654Z,0
2022-10-29T02:16:57.649Z,0
2022-10-29T02:17:58.911Z,0
2022-10-29T02:18:57.946Z,0
2022-10-29T02:19:57.480Z,0
2022-10-29T02:20:57.475Z,0
2022-10-29T02:21:57.978Z,0
2022-10-29T02:22:58.239Z,0
2022-10-29T02:23:57.695Z,0
2022-10-29T02:24:57.987Z,0
2022-10-29T02:25:58.087Z,0
2022-10-29T02:26:57.673Z,0
2022-10-29T02:27:59.123Z,0
2022-10-29T02:28:57.411Z,0
2022-10-29T02:29:57.673Z,0
2022-10-29T02:30:57.664Z,0
2022-10-29T02:31:57.642Z,0
2022-10-29T02:32:58.463Z,0
2022-10-29T02:33:57.365Z,0
2022-10-29T02:34:57.616Z,0
2022-10-29T02:35:57.609Z,0
2022-10-29T02:36:57.341Z,0
2022-10-29T02:37:57.592Z,0
2022-10-29T02:38:57.327Z,0
2022-10-29T02:39:57.322Z,0
2022-10-29T02:40:57.583Z,0
2022-10-29T02:41:57.823Z,0
2022-10-29T02:42:58.378Z,0
2022-10-29T02:43:57.869Z,0
2022-10-29T02:44:57.553Z,0
2022-10-29T02:45:57.806Z,0
2022-10-29T02:46:57.776Z,0
2022-10-29T02:47:58.895Z,0
2022-10-29T02:48:57.271Z,0
2022-10-29T02:49:57.749Z,0
2022-10-29T02:50:57.484Z,0
2022-10-29T02:51:57.219Z,0
2022-10-29T02:52:57.731Z,0
2022-10-29T02:53:57.233Z,0
2022-10-29T02:54:57.453Z,0
2022-10-29T02:55:57.216Z,0
2022-10-29T02:56:57.431Z,0
2022-10-29T02:57:57.926Z,0
2022-10-29T02:58:57.167Z,0
2022-10-29T02:59:57.740Z,0
2022-10-29T03:00:57.149Z,0
2022-10-29T03:01:58.827Z,0
2022-10-29T03:02:58.809Z,0
2022-10-29T03:03:57.635Z,0
2022-10-29T03:04:57.372Z,0
2022-10-29T03:05:57.106Z,0
2022-10-29T03:06:57.098Z,0
2022-10-29T03:07:57.344Z,0
2022-10-29T03:08:57.629Z,0
2022-10-29T03:09:57.587Z,0
2022-10-29T03:10:57.323Z,0
2022-10-29T03:11:57.057Z,0
2022-10-29T03:12:58.325Z,0
2022-10-29T03:13:57.306Z,0
2022-10-29T03:14:57.543Z,0
2022-10-29T03:15:57.347Z,0
2022-10-29T03:16:57.271Z,0
2022-10-29T03:17:58.624Z,0
2022-10-29T03:18:57.246Z,0
2022-10-29T03:19:56.987Z,0
2022-10-29T03:20:57.246Z,0
2022-10-29T03:21:56.979Z,0
2022-10-29T03:22:57.470Z,0
2022-10-29T03:23:57.497Z,0
2022-10-29T03:24:56.941Z,0
2022-10-29T03:26:02.606Z,0
2022-10-29T03:26:56.921Z,0
2022-10-29T03:27:57.936Z,0
2022-10-29T03:28:57.484Z,0
2022-10-29T03:29:57.202Z,0
2022-10-29T03:30:57.436Z,0
2022-10-29T03:31:57.221Z,0
2022-10-29T03:49:41.292Z,0
2022-10-29T03:50:41.193Z,0
2022-10-29T03:51:40.920Z,0
2022-10-29T03:52:41.171Z,0
2022-10-29T03:53:41.172Z,0
2022-10-29T03:54:41.162Z,0
2022-10-29T03:55:40.862Z,0
2022-10-29T03:56:40.629Z,0
2022-10-29T03:57:41.095Z,0
2022-10-29T03:58:40.575Z,0
2022-10-29T03:59:40.567Z,0
2022-10-29T04:00:40.834Z,0
2022-10-29T04:01:41.447Z,0
2022-10-29T04:02:41.520Z,0
2022-10-29T04:03:40.807Z,0
2022-10-29T04:04:40.523Z,0
2022-10-29T04:05:41.199Z,0
2022-10-29T04:06:40.490Z,0
2022-10-29T04:07:40.480Z,0
2022-10-29T04:08:40.726Z,0
2022-10-29T04:09:40.716Z,0
2022-10-29T04:10:40.455Z,0
2022-10-29T04:11:40.183Z,0
2022-10-29T04:12:40.951Z,0
2022-10-29T04:13:40.425Z,0
2022-10-29T04:14:48.250Z,0
2022-10-29T04:15:40.149Z,0
2022-10-29T04:16:40.135Z,0
2022-10-29T04:17:40.377Z,0
2022-10-29T04:18:40.884Z,0
2022-10-29T04:19:40.638Z,0
2022-10-29T04:23:54.562Z,0
2022-10-29T04:28:41.120Z,0
2022-10-29T04:28:52.260Z,0
2022-10-29T04:29:51.434Z,0
2022-10-29T04:30:51.429Z,0
2022-10-29T04:31:51.157Z,0
2022-10-29T04:32:51.769Z,0
2022-10-29T04:33:51.137Z,0
2022-10-29T04:34:51.382Z,0
2022-10-29T04:35:50.861Z,0
2022-10-29T04:36:50.874Z,0
2022-10-29T04:37:51.432Z,0
2022-10-29T04:38:51.658Z,0
2022-10-29T04:39:51.622Z,0
2022-10-29T04:40:51.618Z,0
2022-10-29T04:41:51.067Z,0
2022-10-29T04:42:51.558Z,0
2022-10-29T04:43:51.071Z,0
2022-10-29T04:44:51.305Z,0
2022-10-29T04:45:51.320Z,0
2022-10-29T04:46:50.778Z,0
2022-10-29T04:47:51.532Z,0
2022-10-29T04:48:51.345Z,0
2022-10-29T04:49:50.731Z,0
2022-10-29T04:50:51.236Z,0
2022-10-29T04:51:52.127Z,0
2022-10-29T04:52:52.113Z,0
2022-10-29T04:53:52.156Z,0
2022-10-29T04:54:52.125Z,0
2022-10-29T04:55:52.359Z,0
2022-10-29T04:56:51.851Z,0
2022-10-29T04:57:51.840Z,0
2022-10-29T04:58:51.564Z,0
2022-10-29T04:59:51.797Z,0
2022-10-29T05:00:52.457Z,0
2022-10-29T05:01:52.129Z,0
2022-10-29T05:02:52.360Z,0
2022-10-29T05:03:57.108Z,0
2022-10-29T05:04:52.074Z,0
2022-10-29T05:05:52.323Z,0
2022-10-29T05:06:52.308Z,0
2022-10-29T05:07:52.046Z,0
2022-10-29T05:08:52.287Z,0
2022-10-29T05:09:52.597Z,0
2022-10-29T05:10:52.037Z,0
2022-10-29T05:11:52.004Z,0
2022-10-29T05:12:52.642Z,0
2022-10-29T05:13:52.237Z,0
2022-10-29T05:14:52.226Z,0
2022-10-29T05:15:58.874Z,0
2022-10-29T05:16:51.954Z,0
2022-10-29T05:17:51.939Z,0
2022-10-29T05:18:51.670Z,0
2022-10-29T05:19:52.439Z,0
2022-10-29T05:20:52.544Z,0
2022-10-29T05:21:52.158Z,0
2022-10-29T05:22:52.149Z,0
2022-10-29T05:23:52.397Z,0
2022-10-29T05:24:52.388Z,0
2022-10-29T05:25:52.414Z,0
2022-10-29T05:26:52.438Z,0
2022-10-29T05:27:52.175Z,0
2022-10-29T05:28:52.103Z,0
2022-10-29T05:29:52.330Z,4
2022-10-29T05:30:52.067Z,4
2022-10-29T05:31:52.311Z,0
2022-10-29T05:32:52.044Z,4
2022-10-29T05:33:58.163Z,8
2022-10-29T05:34:52.020Z,4
2022-10-29T05:35:51.512Z,8
2022-10-29T05:36:52.296Z,8
2022-10-29T05:37:52.262Z,8
2022-10-29T05:38:52.638Z,12
2022-10-29T05:39:51.984Z,16
2022-10-29T05:40:52.472Z,20
2022-10-29T05:41:52.255Z,20
2022-10-29T05:42:54.391Z,24
2022-10-29T05:43:51.927Z,28
2022-10-29T05:44:51.944Z,32
2022-10-29T05:45:51.912Z,36
2022-10-29T05:46:51.641Z,40
2022-10-29T05:47:51.879Z,48
2022-10-29T05:48:51.629Z,52
2022-10-29T05:49:51.607Z,60
2022-10-29T05:50:51.603Z,68
2022-10-29T05:51:52.076Z,72
2022-10-29T05:52:52.593Z,80
2022-10-29T05:53:52.570Z,88
2022-10-29T05:54:52.305Z,96
2022-10-29T05:55:52.550Z,108
2022-10-29T05:56:52.287Z,116
2022-10-29T05:57:52.574Z,124
2022-10-29T05:58:52.548Z,136
2022-10-29T05:59:52.506Z,148
2022-10-29T06:00:52.283Z,160
2022-10-29T06:01:53.311Z,172
2022-10-29T06:02:52.983Z,192
2022-10-29T06:04:52.200Z,224
2022-10-29T06:05:52.194Z,240
2022-10-29T06:06:52.831Z,260
2022-10-29T06:07:52.429Z,276
2022-10-29T06:08:52.157Z,296
2022-10-29T06:09:52.401Z,320
2022-10-29T06:10:52.139Z,336
2022-10-29T06:11:51.863Z,360
2022-10-29T06:12:52.124Z,384
2022-10-29T06:13:52.413Z,408
2022-10-29T06:14:52.116Z,428
2022-10-29T06:15:52.089Z,456
2022-10-29T06:16:52.102Z,476
2022-10-29T06:17:51.835Z,500
2022-10-29T06:18:52.314Z,520
2022-10-29T06:19:52.048Z,544
2022-10-29T06:20:52.292Z,564
2022-10-29T06:21:54.070Z,588
2022-10-29T06:22:52.036Z,608
2022-10-29T06:23:52.791Z,628
2022-10-29T06:24:51.999Z,652
2022-10-29T06:25:51.987Z,676
2022-10-29T06:26:52.272Z,704
2022-10-29T06:27:51.962Z,736
2022-10-29T06:28:51.949Z,764
2022-10-29T06:29:51.993Z,796
2022-10-29T06:30:51.970Z,828
2022-10-29T06:31:51.934Z,864
2022-10-29T06:32:52.199Z,900
2022-10-29T06:33:52.145Z,928
2022-10-29T06:34:52.146Z,960
2022-10-29T06:35:52.387Z,992
2022-10-29T06:36:52.639Z,1016
2022-10-29T06:37:52.108Z,1044
2022-10-29T06:38:52.348Z,1064
2022-10-29T06:39:52.600Z,1092
2022-10-29T06:40:52.503Z,1116
2022-10-29T06:41:52.577Z,1144
2022-10-29T06:42:52.315Z,1176
2022-10-29T06:43:52.564Z,1208
2022-10-29T06:44:52.548Z,1232
2022-10-29T06:45:52.337Z,1252
2022-10-29T06:46:52.566Z,1276
2022-10-29T06:47:51.787Z,1292
2022-10-29T06:48:52.287Z,1312
2022-10-29T06:49:52.504Z,1328
2022-10-29T06:50:52.497Z,1348
2022-10-29T06:51:51.971Z,1384
2022-10-29T06:52:51.973Z,1412
2022-10-29T06:53:51.953Z,1440
2022-10-29T06:54:52.462Z,1468
2022-10-29T06:55:52.450Z,1484
2022-10-29T06:56:52.183Z,1504
2022-10-29T06:57:51.922Z,1532
2022-10-29T06:58:52.196Z,1560
2022-10-29T06:59:51.903Z,1588
2022-10-29T07:00:52.854Z,1608
2022-10-29T07:01:52.763Z,1644
2022-10-29T07:02:52.154Z,1680
2022-10-29T07:03:52.383Z,1712
2022-10-29T07:04:52.387Z,1752
2022-10-29T07:05:51.838Z,1792
2022-10-29T07:06:52.116Z,1832
2022-10-29T07:07:51.844Z,1896
2022-10-29T07:08:52.325Z,1936
2022-10-29T07:09:52.321Z,1960
2022-10-29T07:10:51.799Z,1968
2022-10-29T07:11:52.052Z,1960
2022-10-29T07:12:52.043Z,1956
2022-10-29T07:13:52.285Z,1964
2022-10-29T07:14:52.281Z,1976
2022-10-29T07:15:51.767Z,2008
2022-10-29T07:16:52.262Z,2016
2022-10-29T07:17:52.304Z,2012
2022-10-29T07:18:51.751Z,2032
2022-10-29T07:19:52.243Z,2036
2022-10-29T07:20:52.261Z,2040
2022-10-29T07:21:52.219Z,2080
2022-10-29T07:22:52.236Z,2116
2022-10-29T07:23:51.693Z,2152
2022-10-29T07:24:52.987Z,2176
2022-10-29T07:25:51.666Z,2164
2022-10-29T07:26:52.179Z,2192
2022-10-29T07:27:52.349Z,2268
2022-10-29T07:28:51.902Z,2392
2022-10-29T07:29:51.895Z,2524
2022-10-29T07:30:51.625Z,2656
2022-10-29T07:31:51.618Z,2808
2022-10-29T07:32:51.615Z,2932
2022-10-29T07:33:51.905Z,3008
2022-10-29T07:34:51.879Z,3092
2022-10-29T07:35:51.846Z,3192
2022-10-29T07:36:51.862Z,3204
2022-10-29T07:37:51.828Z,3164
2022-10-29T07:38:52.082Z,3032
2022-10-29T07:39:51.831Z,2936
2022-10-29T07:40:51.846Z,2888
2022-10-29T07:41:53.050Z,2836
2022-10-29T07:42:52.050Z,2788
2022-10-29T07:43:51.776Z,2720
2022-10-29T07:44:51.776Z,2632
2022-10-29T07:45:51.769Z,2548
2022-10-29T07:46:51.760Z,2476
2022-10-29T07:47:51.493Z,2428
2022-10-29T07:48:52.004Z,2400
2022-10-29T07:49:52.036Z,2380
2022-10-29T07:50:51.503Z,2384
2022-10-29T07:51:51.974Z,2392
2022-10-29T07:52:51.734Z,2396
2022-10-29T07:53:51.442Z,2412
2022-10-29T07:54:51.441Z,2436
2022-10-29T07:55:51.842Z,2460
2022-10-29T07:56:55.001Z,2488
2022-10-29T07:57:51.413Z,2512
2022-10-29T07:58:51.922Z,2528
2022-10-29T07:59:51.912Z,2540
2022-10-29T08:00:51.707Z,2552
2022-10-29T08:01:52.410Z,2544
2022-10-29T08:02:51.892Z,2556
2022-10-29T08:03:51.878Z,2580
2022-10-29T08:04:51.624Z,2588
2022-10-29T08:05:58.914Z,2628
2022-10-29T08:06:51.350Z,2640
2022-10-29T08:07:51.338Z,2652
2022-10-29T08:08:51.804Z,2664
2022-10-29T08:09:51.578Z,2660
2022-10-29T08:10:51.829Z,2652
2022-10-29T08:11:51.329Z,2652
2022-10-29T08:12:51.832Z,2656
2022-10-29T08:13:51.551Z,2652
2022-10-29T08:14:51.539Z,2624
2022-10-29T08:15:51.298Z,2560
2022-10-29T08:16:51.271Z,2512
2022-10-29T08:17:51.525Z,2460
2022-10-29T08:18:51.767Z,2420
2022-10-29T08:19:51.797Z,2384
2022-10-29T08:20:50.999Z,2352
2022-10-29T08:21:51.567Z,2300
2022-10-29T08:22:51.755Z,2224
2022-10-29T08:23:51.756Z,2152
2022-10-29T08:24:51.525Z,2128
2022-10-29T08:25:51.472Z,2168
2022-10-29T08:26:51.465Z,2224
2022-10-29T08:27:51.950Z,2268
2022-10-29T08:28:51.187Z,2304
2022-10-29T08:29:51.443Z,2332
2022-10-29T08:30:51.439Z,2400
2022-10-29T08:31:51.422Z,2484
2022-10-29T08:32:51.412Z,2556
2022-10-29T08:33:51.169Z,2632
2022-10-29T08:34:51.656Z,2700
2022-10-29T08:35:51.406Z,2780
2022-10-29T08:36:51.140Z,2860
2022-10-29T08:37:51.706Z,2936
2022-10-29T08:38:51.123Z,3012
2022-10-29T08:39:51.125Z,3160
2022-10-29T08:40:51.641Z,3292
2022-10-29T08:41:51.612Z,3364
2022-10-29T08:42:51.359Z,3436
2022-10-29T08:43:54.632Z,3520
2022-10-29T08:44:51.349Z,3572
2022-10-29T08:45:51.595Z,3564
2022-10-29T08:46:51.336Z,3508
2022-10-29T08:47:51.592Z,3448
2022-10-29T08:48:51.588Z,3408
2022-10-29T08:49:50.800Z,3320
2022-10-29T08:50:51.327Z,3288
2022-10-29T08:51:51.036Z,3308
2022-10-29T08:53:36.370Z,3380
2022-10-29T08:54:34.229Z,3388
2022-10-29T08:54:51.274Z,3392
2022-10-29T08:55:51.537Z,3400
2022-10-29T08:56:51.548Z,3408
2022-10-29T08:57:50.995Z,3436
2022-10-29T08:58:51.245Z,3488
2022-10-29T08:59:51.507Z,3580
2022-10-29T09:00:51.581Z,3704
2022-10-29T09:01:51.667Z,3868
2022-10-29T09:02:51.478Z,4000
2022-10-29T09:03:51.477Z,4156
2022-10-29T09:04:51.382Z,4332
2022-10-29T09:05:51.124Z,4536
2022-10-29T09:06:51.114Z,4744
2022-10-29T09:07:51.361Z,4904
2022-10-29T09:08:51.685Z,5012
2022-10-29T09:09:51.351Z,5004
2022-10-29T09:10:51.346Z,5080
2022-10-29T09:11:51.331Z,5088
2022-10-29T09:12:51.625Z,4916
2022-10-29T09:13:51.075Z,4676
2022-10-29T09:14:51.065Z,4440
2022-10-29T09:15:57.885Z,4180
2022-10-29T09:16:51.609Z,3976
2022-10-29T09:17:51.308Z,3772
2022-10-29T09:18:51.556Z,3648
2022-10-29T09:19:51.553Z,3648
2022-10-29T09:20:51.299Z,3532
2022-10-29T09:21:51.537Z,3612
2022-10-29T09:22:51.535Z,3784
2022-10-29T09:23:51.528Z,3956
2022-10-29T09:24:51.346Z,4052
2022-10-29T09:25:51.517Z,4116
2022-10-29T09:26:51.258Z,4196
2022-10-29T09:27:50.993Z,4132
2022-10-29T09:28:51.530Z,4168
2022-10-29T09:29:51.497Z,4256
2022-10-29T09:30:50.978Z,4256
2022-10-29T09:31:51.515Z,4192
2022-10-29T09:33:51.477Z,3656
2022-10-29T09:34:51.462Z,3436
2022-10-29T09:35:50.971Z,3140
2022-10-29T09:36:50.956Z,2768
2022-10-29T09:37:51.461Z,2544
2022-10-29T09:38:50.941Z,2588
2022-10-29T09:39:50.925Z,2500
2022-10-29T09:40:51.608Z,2436
2022-10-29T09:41:51.176Z,2484
2022-10-29T09:42:51.447Z,2564
2022-10-29T09:43:51.172Z,2748
2022-10-29T09:44:51.193Z,3004
2022-10-29T09:45:51.169Z,3204
2022-10-29T09:46:51.158Z,3368
2022-10-29T09:47:51.408Z,3540
2022-10-29T09:48:51.401Z,3684
2022-10-29T09:49:51.398Z,3856
2022-10-29T09:50:50.884Z,4120
2022-10-29T09:51:51.384Z,4240
2022-10-29T09:52:51.136Z,4204
2022-10-29T09:53:51.408Z,4208
2022-10-29T09:54:51.383Z,4168
2022-10-29T09:55:51.364Z,4084
2022-10-29T09:56:58.208Z,3952
2022-10-29T09:57:51.360Z,3724
2022-10-29T09:58:51.095Z,3448
2022-10-29T09:59:51.347Z,3208
2022-10-29T10:00:51.145Z,3016
2022-10-29T10:01:51.088Z,2860
2022-10-29T10:02:51.647Z,2752
2022-10-29T10:03:51.088Z,2724
2022-10-29T10:04:51.377Z,2720
2022-10-29T10:05:51.066Z,2756
2022-10-29T10:06:50.803Z,2804
2022-10-29T10:07:51.069Z,2916
2022-10-29T10:08:51.057Z,3048
2022-10-29T10:09:51.044Z,2840
2022-10-29T10:10:51.037Z,2968
2022-10-29T10:11:51.295Z,3120
2022-10-29T10:12:51.129Z,3308
2022-10-29T10:13:50.772Z,3108
2022-10-29T10:14:50.758Z,3088
2022-10-29T10:15:50.761Z,3100
2022-10-29T10:16:51.342Z,3096
2022-10-29T10:17:50.493Z,3220
2022-10-29T10:18:50.748Z,3028
2022-10-29T10:19:51.002Z,3052
2022-10-29T10:20:50.994Z,3472
2022-10-29T10:21:50.995Z,3756
2022-10-29T10:22:51.121Z,3920
2022-10-29T10:23:50.980Z,4012
2022-10-29T10:24:51.249Z,3832
2022-10-29T10:25:51.385Z,4172
2022-10-29T10:26:50.971Z,4260
2022-10-29T10:27:51.337Z,4280
2022-10-29T10:28:51.286Z,4400
2022-10-29T10:29:50.961Z,4512
2022-10-29T10:30:51.209Z,4640
2022-10-29T10:31:51.090Z,4764
2022-10-29T10:32:50.976Z,5020
2022-10-29T10:33:51.203Z,5260
2022-10-29T10:34:50.930Z,5516
2022-10-29T10:35:50.976Z,5736
2022-10-29T10:36:51.197Z,5928
2022-10-29T10:37:51.375Z,6076
2022-10-29T10:38:51.303Z,6192
2022-10-29T10:39:50.767Z,6276
2022-10-29T10:40:51.167Z,6280
2022-10-29T10:41:50.396Z,6304
2022-10-29T10:42:50.905Z,6260
2022-10-29T10:43:50.896Z,6172
2022-10-29T10:44:51.230Z,6008
2022-10-29T10:45:50.636Z,5876
2022-10-29T10:46:51.143Z,5796
2022-10-29T10:47:50.690Z,5788
2022-10-29T10:48:50.917Z,5740
2022-10-29T10:49:50.875Z,5712
2022-10-29T10:50:50.362Z,5676
2022-10-29T10:51:50.883Z,5716
2022-10-29T10:52:50.613Z,5828
2022-10-29T10:53:51.709Z,5960
2022-10-29T10:54:52.104Z,6172
2022-10-29T10:55:52.149Z,6316
2022-10-29T10:56:52.141Z,6556
2022-10-29T10:57:51.637Z,6548
2022-10-29T10:58:51.881Z,6484
2022-10-29T10:59:52.132Z,6480
2022-10-29T11:00:52.544Z,6280
2022-10-29T11:01:52.451Z,6176
2022-10-29T11:02:52.128Z,6060
2022-10-29T11:03:52.125Z,5944
2022-10-29T11:04:51.636Z,5908
2022-10-29T11:05:52.116Z,5932
2022-10-29T11:06:51.927Z,6052
2022-10-29T11:07:52.110Z,6192
2022-10-29T11:08:51.603Z,6304
2022-10-29T11:09:51.853Z,6340
2022-10-29T11:10:51.851Z,6352
2022-10-29T11:11:56.276Z,6324
2022-10-29T11:12:51.666Z,6272
2022-10-29T11:13:51.839Z,6180
2022-10-29T11:14:51.583Z,6100
2022-10-29T11:15:51.340Z,6056
2022-10-29T11:16:52.164Z,5980
2022-10-29T11:17:59.435Z,5900
2022-10-29T11:18:52.107Z,5808
2022-10-29T11:19:51.825Z,5608
2022-10-29T11:20:52.103Z,5392
2022-10-29T11:21:51.819Z,5224
2022-10-29T11:22:52.074Z,5048
2022-10-29T11:23:51.852Z,4836
2022-10-29T11:24:51.810Z,4588
2022-10-29T11:25:52.080Z,4324
2022-10-29T11:26:51.820Z,4088
2022-10-29T11:27:51.540Z,3888
2022-10-29T11:28:51.605Z,3580
2022-10-29T11:29:56.464Z,3352
2022-10-29T11:30:52.047Z,3220
2022-10-29T11:31:51.816Z,3128
2022-10-29T11:32:52.121Z,3060
2022-10-29T11:33:51.796Z,2996
2022-10-29T11:34:52.038Z,2960
2022-10-29T11:35:51.264Z,2924
2022-10-29T11:36:51.792Z,2876
2022-10-29T11:37:52.315Z,2816
2022-10-29T11:38:52.031Z,2804
2022-10-29T11:39:52.027Z,2860
2022-10-29T11:40:51.777Z,3008
2022-10-29T11:41:52.285Z,3228
2022-10-29T11:42:52.029Z,3476
2022-10-29T11:43:52.017Z,3752
2022-10-29T11:44:52.005Z,4032
2022-10-29T11:45:52.274Z,4296
2022-10-29T11:46:51.749Z,4448
2022-10-29T11:47:52.007Z,4416
2022-10-29T11:48:52.082Z,4160
2022-10-29T11:49:52.249Z,3832
2022-10-29T11:50:51.987Z,3544
2022-10-29T11:51:52.262Z,3252
2022-10-29T11:52:52.005Z,3064
2022-10-29T11:53:51.726Z,2968
2022-10-29T11:54:52.230Z,2932
2022-10-29T11:55:51.460Z,2932
2022-10-29T11:56:51.713Z,2968
2022-10-29T11:57:52.230Z,3060
2022-10-29T11:58:51.447Z,3068
2022-10-29T11:59:51.701Z,3232
2022-10-29T12:00:52.203Z,3292
2022-10-29T12:01:52.636Z,3296
2022-10-29T12:02:52.207Z,3228
2022-10-29T12:03:52.008Z,3364
2022-10-29T12:04:52.266Z,3356
2022-10-29T12:05:51.688Z,3172
2022-10-29T12:06:52.193Z,3164
2022-10-29T12:07:52.047Z,3308
2022-10-29T12:08:51.952Z,3328
2022-10-29T12:09:52.179Z,3324
2022-10-29T12:10:51.664Z,3332
2022-10-29T12:11:51.664Z,3352
2022-10-29T12:12:51.397Z,3384
2022-10-29T12:13:51.907Z,3372
2022-10-29T12:14:51.904Z,3352
2022-10-29T12:15:51.900Z,3344
2022-10-29T12:16:52.154Z,3332
2022-10-29T12:17:51.728Z,3248
2022-10-29T12:18:51.628Z,3260
2022-10-29T12:19:51.955Z,3260
2022-10-29T12:20:52.208Z,3192
2022-10-29T12:21:51.365Z,3224
2022-10-29T12:22:52.174Z,3268
2022-10-29T12:23:52.124Z,3248
2022-10-29T12:24:52.146Z,3252
2022-10-29T12:25:51.603Z,3264
2022-10-29T12:26:52.140Z,3268
2022-10-29T12:27:51.592Z,3284
2022-10-29T12:28:52.107Z,3288
2022-10-29T12:29:52.100Z,3320
2022-10-29T12:30:51.587Z,3320
2022-10-29T12:31:51.597Z,3272
2022-10-29T12:32:51.851Z,3236
2022-10-29T12:33:51.833Z,3276
2022-10-29T12:34:51.828Z,3496
2022-10-29T12:35:52.129Z,3664
2022-10-29T12:36:57.439Z,3784
2022-10-29T12:37:52.073Z,3884
2022-10-29T12:38:51.821Z,4096
2022-10-29T12:39:52.064Z,4372
2022-10-29T12:40:51.837Z,4688
2022-10-29T12:41:51.805Z,4932
2022-10-29T12:42:51.798Z,5148
2022-10-29T12:43:52.054Z,5320
2022-10-29T12:44:52.165Z,5432
2022-10-29T12:46:26.761Z,5492
2022-10-29T12:46:51.785Z,5476
2022-10-29T12:47:51.785Z,5504
2022-10-29T12:48:51.790Z,5512
2022-10-29T12:49:51.776Z,5492
2022-10-29T12:50:52.029Z,5420
2022-10-29T12:51:51.777Z,5272
2022-10-29T12:52:52.094Z,5052
2022-10-29T12:53:51.750Z,4780
2022-10-29T12:54:51.765Z,4476
2022-10-29T12:55:51.750Z,4184
2022-10-29T12:56:56.107Z,3912
2022-10-29T12:57:51.512Z,3696
2022-10-29T12:58:51.750Z,3496
2022-10-29T12:59:51.221Z,3304
2022-10-29T13:00:52.270Z,3172
2022-10-29T13:02:17.692Z,3004
2022-10-29T13:02:52.988Z,2944
2022-10-29T13:03:51.989Z,2928
2022-10-29T13:04:51.737Z,3028
2022-10-29T13:05:51.478Z,3188
2022-10-29T13:06:51.727Z,3360
2022-10-29T13:07:52.019Z,3536
2022-10-29T13:08:52.042Z,3704
2022-10-29T13:09:55.721Z,3840
2022-10-29T13:10:51.448Z,3928
2022-10-29T13:11:51.696Z,3976
2022-10-29T13:12:51.990Z,3996
2022-10-29T13:13:51.689Z,4012
2022-10-29T13:14:51.436Z,4032
2022-10-29T13:15:51.429Z,4052
2022-10-29T13:16:51.945Z,4112
2022-10-29T13:17:51.948Z,4196
2022-10-29T13:18:51.685Z,4288
2022-10-29T13:19:51.933Z,4344
2022-10-29T13:20:51.157Z,4392
2022-10-29T13:21:51.675Z,4424
2022-10-29T13:22:51.719Z,4460
2022-10-29T13:23:51.655Z,4464
2022-10-29T13:24:51.735Z,4440
2022-10-29T13:25:51.656Z,4408
2022-10-29T13:26:51.652Z,4388
2022-10-29T13:27:51.902Z,4344
2022-10-29T13:28:51.659Z,4248
2022-10-29T13:29:51.907Z,4144
2022-10-29T13:30:51.646Z,4072
2022-10-29T13:31:51.633Z,3988
2022-10-29T13:32:51.884Z,3892
2022-10-29T13:33:51.383Z,3796
2022-10-29T13:34:51.623Z,3728
2022-10-29T13:35:51.615Z,3664
2022-10-29T13:36:51.867Z,3604
2022-10-29T13:37:51.349Z,3560
2022-10-29T13:39:12.692Z,3524
2022-10-29T13:39:51.601Z,3528
2022-10-29T13:40:51.920Z,3528
2022-10-29T13:41:51.353Z,3516
2022-10-29T13:42:51.593Z,3500
2022-10-29T13:43:51.590Z,3500
2022-10-29T13:44:51.610Z,3504
2022-10-29T13:45:51.582Z,3504
2022-10-29T13:46:53.734Z,3512
2022-10-29T13:47:51.315Z,3508
2022-10-29T13:48:51.574Z,3496
2022-10-29T13:49:51.588Z,3492
2022-10-29T13:50:51.566Z,3472
2022-10-29T13:51:52.165Z,3444
2022-10-29T13:52:51.813Z,3420
2022-10-29T13:53:51.564Z,3404
2022-10-29T13:54:51.550Z,3384
2022-10-29T13:55:51.548Z,3348
2022-10-29T13:56:51.868Z,3300
2022-10-29T13:57:51.803Z,3268
2022-10-29T13:58:51.533Z,3240
2022-10-29T13:59:51.530Z,3200
2022-10-29T14:00:52.119Z,3172
2022-10-29T14:01:52.595Z,3116
2022-10-29T14:02:51.467Z,3072
2022-10-29T14:03:51.782Z,3068
2022-10-29T14:04:51.509Z,3084
2022-10-29T14:05:51.247Z,3068
2022-10-29T14:06:51.967Z,3036
2022-10-29T14:07:51.701Z,3008
2022-10-29T14:08:51.954Z,2964
2022-10-29T14:09:52.210Z,2904
2022-10-29T14:10:52.230Z,2828
2022-10-29T14:11:51.951Z,2752
2022-10-29T14:12:52.269Z,2672
2022-10-29T14:13:52.199Z,2592
2022-10-29T14:14:51.934Z,2524
2022-10-29T14:15:52.192Z,2480
2022-10-29T14:16:52.205Z,2448
2022-10-29T14:17:51.965Z,2428